Tams, West Virginia
Current Conditions -  °F | °C
As of 11:51 PM on Saturday 25 Oct 2014 (Local Time) from KBKW Reporting Station
Clear Clear  
Wind Chill: 55°   Ceiling: Unl
Heat Index: 55°   Visibility: 10mi
Dew Point: 50°   Wind: 12mph
Humidity: 83%   Direction: 270°W
Pressure: 29.93"   Gusts: NA
Location:  37.6919°N, 81.2784°W
Report Text: KBKW 260351Z AUTO 27010KT 10SM CLR 13/10 A2993 RMK AO2 SLP123 T01280100 TSNO
Loading
Personal Weather Stations






























Interactive Weather Map
Tropical Storm Tracking
New forecast layout! Learn more

10-Day Weather Forecast

Advertisements
Track Severe Weather on mobile